Latest Weather Observations for Lajamanu

IDD60801

Issued at 10:31 pm CST Monday 31 August 2015 (issued every 30 minutes, with the page automatically refreshed every 10 minutes)

About weather observations | Map of weather stations | Latest weather observations for NT | Other Formats
Station Details ID: 014829 Name: LAJAMANU AIRPORT Lat: -18.33 Lon: 130.64 Height: 315.6 m
Data from the previous 72 hours. | See also: Recent months at Lajamanu
Date/Time
CST
Temp
°C
App
Temp
°C
Dew
Point
Rel
Hum
%
Delta-T
°C
Wind Press
QNH
hPa
Press
MSL
hPa
Rain
since 9 am
mm
Dir
 
Spd
km/h
Gust
km/h
Spd
kts
Gust
kts
31/10:30pm 25.2 22.0 6.9 31 9.7 NE 13 19 7 10 1014.4 1013.3 0.0
31/10:00pm 24.1 21.0 7.3 34 8.9 ENE 13 13 7 7 1014.6 1013.5 0.0
31/09:30pm 24.5 21.4 7.2 33 9.2 ENE 13 13 7 7 1014.6 1013.5 0.0
31/09:00pm 24.8 21.7 7.4 33 9.3 ENE 13 13 7 7 1014.2 1013.1 0.0
31/08:30pm 24.9 22.1 7.1 32 9.5 E 11 11 6 6 1014.0 1012.9 0.0
31/08:00pm 25.6 23.0 6.3 29 10.2 ENE 9 11 5 6 1013.6 1012.5 0.0
31/07:30pm 25.7 23.3 5.3 27 10.6 NE 7 7 4 4 1013.4 1012.3 0.0
31/07:00pm 27.5 24.6 4.5 23 11.9 NNE 9 11 5 6 1013.2 1012.1 0.0
31/06:30pm 29.7 27.3 5.1 21 13.0 N 7 9 4 5 1013.1 1012.0 0.0
31/06:00pm 32.1 29.5 4.0 17 14.8 NW 7 11 4 6 1012.9 1011.8 0.0
31/05:30pm 32.6 30.2 4.4 17 15.0 NNW 6 11 3 6 1012.6 1011.6 0.0
31/05:00pm 32.9 29.5 3.8 16 15.3 NNW 11 22 6 12 1012.6 1011.6 0.0
31/04:30pm 33.2 29.6 3.1 15 15.7 ENE 11 20 6 11 1012.6 1011.6 0.0
31/04:00pm 33.2 30.0 3.1 15 15.7 NNW 9 19 5 10 1012.9 1011.8 0.0
31/03:30pm 32.9 29.1 1.9 14 15.8 NE 11 20 6 11 1013.3 1012.2 0.0
31/03:00pm 32.4 27.8 1.5 14 15.6 NNE 15 24 8 13 1013.7 1012.6 0.0
31/02:30pm 32.3 27.5 2.4 15 15.3 N 17 30 9 16 1014.1 1013.0 0.0
31/02:00pm 32.5 27.5 1.6 14 15.6 NNE 17 24 9 13 1014.6 1013.5 0.0
31/01:30pm 31.9 26.3 1.1 14 15.4 NNE 20 28 11 15 1015.0 1014.0 0.0
31/01:00pm 31.0 25.8 0.4 14 15.0 N 17 24 9 13 1015.6 1014.6 0.0
31/12:30pm 30.3 24.5 -0.1 14 14.7 NNE 20 28 11 15 1016.3 1015.2 0.0
31/12:00pm 29.5 23.0 0.2 15 14.2 NE 24 30 13 16 1016.7 1015.6 0.0
31/11:30am 29.0 22.8 -0.2 15 14.0 NE 22 32 12 17 1017.1 1016.0 0.0
31/11:00am 28.4 22.8 1.0 17 13.4 NE 20 30 11 16 1017.7 1016.7 0.0
31/10:30am 27.0 20.8 2.1 20 12.2 NE 24 32 13 17 1017.8 1016.8 0.0
31/10:00am 25.8 20.5 3.1 23 11.3 NE 20 30 11 16 1017.9 1016.9 0.0
31/09:30am 24.4 19.9 4.2 27 10.1 NE 17 26 9 14 1017.9 1016.9 0.0
31/09:00am 23.1 18.7 4.6 30 9.3 NE 17 24 9 13 1017.7 1016.7 0.0
31/08:30am 21.7 18.2 5.6 35 8.2 NE 13 20 7 11 1017.6 1016.5 0.0
31/08:00am 20.4 17.6 7.1 42 6.9 NE 11 17 6 9 1017.4 1016.3 0.0
31/07:30am 19.4 16.4 7.8 47 6.0 NE 13 19 7 10 1017.1 1016.0 0.0
31/07:00am 19.4 16.3 7.2 45 6.3 ENE 13 17 7 9 1016.7 1015.6 0.0
31/06:30am 19.3 16.2 7.1 45 6.3 ENE 13 17 7 9 1016.4 1015.3 0.0
31/06:00am 19.2 16.5 7.3 46 6.1 ENE 11 17 6 9 1016.3 1015.2 0.0
31/05:30am 19.0 16.7 7.4 47 6.0 ENE 9 11 5 6 1015.8 1014.8 0.0
31/05:00am 18.9 16.3 7.7 48 5.8 E 11 15 6 8 1015.7 1014.7 0.0
31/04:30am 19.1 16.5 7.8 48 5.9 E 11 13 6 7 1015.7 1014.7 0.0
31/04:00am 19.4 16.9 8.1 48 5.9 E 11 15 6 8 1015.7 1014.7 0.0
31/03:30am 19.3 17.0 8.9 51 5.5 E 11 15 6 8 1015.8 1014.8 0.0
31/03:00am 18.6 16.6 8.8 53 5.2 E 9 11 5 6 1016.0 1015.0 0.0
31/02:30am 19.3 17.2 8.3 49 5.8 E 9 11 5 6 1016.4 1015.3 0.0
31/02:00am 20.7 17.9 8.4 45 6.5 E 13 19 7 10 1016.3 1015.2 0.0
31/01:30am 20.2 17.5 8.8 48 6.1 E 13 13 7 7 1016.4 1015.3 0.0
31/01:00am 20.2 18.0 9.5 50 5.8 E 11 15 6 8 1016.6 1015.5 0.0
31/12:30am 20.9 18.3 9.2 47 6.3 E 13 17 7 9 1016.9 1015.8 0.0
31/12:00am 20.9 18.8 9.8 49 6.0 E 11 15 6 8 1017.3 1016.2 0.0
 
Date/Time
CST
Temp
°C
App
Temp
°C
Dew
Point
Rel
Hum
%
Delta-T
°C
Wind Press
QNH
hPa
Press
MSL
hPa
Rain
since 9 am
mm
Dir
 
Spd
km/h
Gust
km/h
Spd
kts
Gust
kts
30/11:30pm 21.1 19.1 10.0 49 6.1 E 11 13 6 7 1017.6 1016.5 0.0
30/11:00pm 21.5 19.2 10.6 50 6.1 E 13 17 7 9 1017.7 1016.7 0.0
30/10:30pm 21.5 19.5 10.3 49 6.2 E 11 15 6 8 1017.7 1016.7 0.0
30/10:00pm 22.5 19.6 9.6 44 7.1 E 15 19 8 10 1017.6 1016.5 0.0
30/09:30pm 23.0 20.7 10.4 45 7.0 E 13 17 7 9 1017.6 1016.5 0.0
30/09:00pm 23.0 21.0 11.4 48 6.6 E 13 17 7 9 1017.5 1016.4 0.0
30/08:30pm 23.0 21.5 12.0 50 6.3 ESE 11 13 6 7 1017.3 1016.2 0.0
30/08:00pm 23.7 22.2 12.0 48 6.7 ENE 11 13 6 7 1017.0 1015.9 0.0
30/07:30pm 24.5 22.9 11.5 44 7.4 ENE 11 13 6 7 1016.7 1015.6 0.0
30/07:00pm 25.4 23.7 9.7 37 8.8 ENE 9 11 5 6 1016.4 1015.3 0.0
30/06:30pm 27.2 25.6 8.6 31 10.3 NE 7 9 4 5 1016.0 1015.0 0.0
30/06:00pm 29.0 27.2 8.1 27 11.5 NE 7 13 4 7 1015.8 1014.8 0.0
30/05:30pm 29.9 27.2 8.9 27 11.8 NE 13 19 7 10 1015.5 1014.5 0.0
30/05:00pm 30.2 27.9 9.1 27 11.9 NE 11 15 6 8 1015.3 1014.3 0.0
30/04:30pm 30.4 28.2 9.3 27 12.0 NE 11 15 6 8 1015.4 1014.4 0.0
30/04:00pm 30.0 27.9 8.4 26 12.1 ENE 9 17 5 9 1015.5 1014.5 0.0
30/03:30pm 29.9 26.7 8.3 26 12.0 E 15 22 8 12 1015.7 1014.7 0.0
30/03:00pm 29.9 27.2 8.9 27 11.8 ENE 13 24 7 13 1015.9 1014.9 0.0
30/02:30pm 29.5 26.5 9.1 28 11.5 E 15 22 8 12 1016.3 1015.2 0.0
30/02:00pm 29.4 26.8 9.5 29 11.3 ENE 13 20 7 11 1016.8 1015.7 0.0
30/01:30pm 29.4 26.5 9.5 29 11.3 ENE 15 28 8 15 1017.2 1016.1 0.0
30/01:00pm 28.8 25.1 9.5 30 10.9 ENE 19 30 10 16 1017.6 1016.5 0.0
30/12:30pm 27.9 24.3 9.7 32 10.3 ENE 19 30 10 16 1018.3 1017.3 0.0
30/12:00pm 27.8 24.6 10.1 33 10.0 ENE 17 30 9 16 1019.0 1018.0 0.0
30/11:30am 27.1 23.7 9.0 32 10.0 ENE 17 33 9 18 1019.6 1018.5 0.0
30/11:00am 26.6 21.6 8.1 31 10.1 E 24 35 13 19 1019.8 1018.7 0.0
30/10:30am 25.6 20.7 8.6 34 9.3 E 24 35 13 19 1020.0 1018.9 0.0
30/10:00am 24.4 19.7 9.2 38 8.4 E 24 33 13 18 1020.0 1018.9 0.0
30/09:30am 23.2 19.6 10.6 45 7.0 ENE 20 33 11 18 1020.2 1019.1 0.0
30/09:00am 21.4 19.0 12.5 57 5.1 E 17 24 9 13 1020.0 1018.9 0.0
30/08:30am 19.7 18.0 13.6 68 3.5 ESE 15 19 8 10 1019.8 1018.7 0.0
30/08:00am 18.1 16.8 13.6 75 2.6 ESE 13 15 7 8 1019.3 1018.3 0.0
30/07:30am 17.3 16.4 13.6 79 2.1 ESE 11 13 6 7 1018.7 1017.7 0.0
30/07:00am 16.6 15.6 13.3 81 1.9 ESE 11 13 6 7 1018.2 1017.2 0.0
30/06:30am 17.1 16.2 13.6 80 2.0 ESE 11 13 6 7 1018.0 1017.0 0.0
30/06:00am 17.1 16.6 13.8 81 1.9 ESE 9 11 5 6 1017.9 1016.9 0.0
30/05:30am 17.5 17.0 13.8 79 2.1 ESE 9 13 5 7 1017.8 1016.8 0.0
30/05:00am 17.8 17.8 14.1 79 2.1 SE 7 13 4 7 1017.7 1016.7 0.0
30/04:30am 17.7 17.4 14.4 81 1.9 ESE 9 11 5 6 1017.5 1016.4 0.0
30/04:00am 17.6 17.3 14.5 82 1.8 ESE 9 13 5 7 1017.5 1016.4 0.0
30/03:30am 17.4 17.3 14.9 85 1.5 ESE 9 11 5 6 1017.5 1016.4 0.0
30/03:00am 17.7 17.5 14.8 83 1.7 ESE 9 11 5 6 1017.6 1016.5 0.0
30/02:30am 18.1 17.7 15.2 83 1.7 ESE 11 15 6 8 1017.9 1016.9 0.0
30/02:00am 18.2 17.8 15.1 82 1.8 E 11 13 6 7 1018.0 1017.0 0.0
30/01:30am 18.8 18.4 15.3 80 2.1 E 11 15 6 8 1018.3 1017.3 0.0
30/01:00am 19.3 19.1 15.8 80 2.1 ESE 11 15 6 8 1018.6 1017.6 0.0
30/12:30am 19.7 19.2 16.0 79 2.2 E 13 17 7 9 1018.7 1017.7 0.0
30/12:00am 19.2 19.7 16.6 85 1.6 ESE 9 11 5 6 1018.9 1017.9 0.0
 
Date/Time
CST
Temp
°C
App
Temp
°C
Dew
Point
Rel
Hum
%
Delta-T
°C
Wind Press
QNH
hPa
Press
MSL
hPa
Rain
since 9 am
mm
Dir
 
Spd
km/h
Gust
km/h
Spd
kts
Gust
kts
29/11:30pm 19.2 19.9 16.1 82 1.9 E 7 9 4 5 1018.9 1017.9 0.0
29/11:00pm 19.9 20.4 16.5 81 2.1 ESE 9 11 5 6 1018.9 1017.9 0.0
29/10:30pm 20.5 20.6 16.5 78 2.4 ENE 11 13 6 7 1018.8 1017.8 0.0
29/10:00pm 20.8 21.3 16.6 77 2.6 ENE 9 11 5 6 1018.8 1017.8 0.0
29/09:30pm 20.9 21.1 16.7 77 2.6 ENE 11 13 6 7 1018.8 1017.8 0.0
29/09:00pm 20.9 21.4 16.5 76 2.7 E 9 11 5 6 1018.7 1017.7 0.0
29/08:30pm 21.5 21.9 16.2 72 3.2 E 9 11 5 6 1018.4 1017.4 0.0
29/08:00pm 22.1 22.4 16.1 69 3.7 ENE 9 9 5 5 1018.0 1017.0 0.0
29/07:30pm 22.8 22.9 15.4 63 4.5 E 9 9 5 5 1017.8 1016.8 0.0
29/07:00pm 23.8 24.1 15.0 57 5.3 ENE 7 11 4 6 1017.4 1016.3 0.0
29/06:30pm 25.2 24.6 14.6 51 6.4 ENE 11 15 6 8 1017.0 1015.9 0.0
29/06:00pm 26.3 24.8 14.1 47 7.3 NE 15 20 8 11 1016.7 1015.6 0.0
29/05:30pm 27.4 26.0 14.4 45 7.9 NE 15 24 8 13 1016.6 1015.5 0.0
29/05:00pm 27.2 25.8 14.6 46 7.7 NE 15 26 8 14 1016.6 1015.5 0.0
29/04:30pm 27.4 26.1 14.8 46 7.7 NE 15 20 8 11 1016.6 1015.5 0.0
29/04:00pm 27.4 25.7 14.8 46 7.7 ENE 17 24 9 13 1016.6 1015.5 0.0
29/03:30pm 27.0 26.4 14.7 47 7.5 NE 11 19 6 10 1016.9 1015.8 0.0
29/03:00pm 26.8 25.5 14.9 48 7.3 NE 15 26 8 14 1017.3 1016.2 0.0
29/02:30pm 27.0 25.9 15.4 49 7.1 ENE 15 22 8 12 1017.8 1016.8 0.0
29/02:00pm 26.3 25.3 14.7 48 7.1 ENE 13 20 7 11 1018.5 1017.5 0.0
29/01:30pm 26.0 24.8 15.1 51 6.6 NE 15 24 8 13 1019.1 1018.1 0.0
29/01:00pm 25.0 23.3 14.8 53 6.2 ENE 17 24 9 13 1019.8 1018.7 0.0
29/12:30pm 24.4 23.1 15.9 59 5.2 ENE 17 26 9 14 1020.2 1019.1 0.0
29/12:00pm 23.6 22.7 15.9 62 4.7 ENE 15 26 8 14 1020.8 1019.8 0.0
29/11:30am 22.3 21.8 15.9 67 3.9 ENE 13 20 7 11 1021.3 1020.3 0.0
29/11:00am 19.9 20.0 15.5 76 2.6 ESE 9 15 5 8 1021.9 1020.9 0.0
29/10:30am 19.6 20.2 15.7 78 2.3 SSE 7 13 4 7 1022.2 1021.2 0.0
29/10:00am 19.9 20.3 16.2 79 2.2 NE 9 13 5 7 1022.0 1021.0 0.0
29/09:30am 19.7 19.1 15.6 77 2.5 ENE 13 20 7 11 1021.5 1020.5 0.0
29/09:00am 18.4 18.2 15.6 84 1.7 E 11 17 6 9 1021.1 1020.1 6.2
29/08:30am 17.0 15.9 15.2 89 1.1 ESE 15 20 8 11 1020.4 1019.3 6.2
29/08:00am 16.7 16.5 15.6 93 0.7 ESE 11 15 6 8 1020.3 1019.2 6.2
29/07:30am 15.9 16.1 14.8 93 0.6 ESE 7 11 4 6 1020.0 1018.9 6.2
29/07:00am 15.7 14.7 14.6 93 0.6 ESE 13 17 7 9 1019.3 1018.3 6.2
29/06:30am 15.5 15.2 14.4 93 0.6 E 9 13 5 7 1019.2 1018.2 6.2
29/06:00am 15.7 15.5 14.6 93 0.6 ESE 9 13 5 7 1019.0 1018.0 6.2
29/05:30am 16.0 15.4 14.7 92 0.8 SE 11 13 6 7 1019.0 1018.0 6.2
29/05:00am 16.2 15.8 15.1 93 0.6 SE 11 15 6 8 1019.2 1018.2 6.2
29/04:30am 16.2 16.2 15.1 93 0.6 ESE 9 13 5 7 1019.0 1018.0 6.2
29/04:00am 16.0 15.4 14.7 92 0.8 E 11 15 6 8 1018.8 1017.8 6.2
29/03:30am 16.1 14.8 14.8 92 0.8 E 15 20 8 11 1018.8 1017.8 6.2
29/03:00am 16.2 14.5 14.7 91 0.9 ESE 17 24 9 13 1019.0 1018.0 6.2
29/02:30am 16.4 14.8 14.9 91 0.9 E 17 26 9 14 1019.2 1018.2 6.2
29/02:00am 16.9 13.8 15.6 92 0.8 ESE 26 35 14 19 1018.8 1017.8 6.0
29/01:30am 17.3 17.0 15.5 89 1.1 SSE 11 17 6 9 1020.5 1019.5 4.8
29/01:10am 17.4 15.7 15.7 90 1.0 ESE 19 32 10 17 1021.1 1020.1 3.6
29/01:00am 17.2 14.5 15.7 91 0.9 E 24 32 13 17 1019.0 1018.0 3.6
29/12:30am 17.3 15.3 15.5 89 1.1 ESE 20 32 11 17 1019.8 1018.7 2.4
29/12:00am 18.9 18.1 15.2 79 2.2 SE 13 26 7 14 1020.9 1019.9 0.0
 
Date/Time
CST
Temp
°C
App
Temp
°C
Dew
Point
Rel
Hum
%
Delta-T
°C
Wind Press
QNH
hPa
Press
MSL
hPa
Rain
since 9 am
mm
Dir
 
Spd
km/h
Gust
km/h
Spd
kts
Gust
kts
28/11:30pm 19.0 15.8 15.3 79 2.2 SE 26 41 14 22 1020.1 1019.0 0.0
28/11:00pm 19.0 16.2 15.3 79 2.2 SE 24 37 13 20 1020.1 1019.0 0.0

Other Formats:

Comma delimited format used in spreadsheet applications
http://www.bom.gov.au/fwo/IDD60801/IDD60801.94231.axf

JavaScript Object Notation format (JSON) in row-major order
http://www.bom.gov.au/fwo/IDD60801/IDD60801.94231.json